Time;durP1;ratioP1;P1;durP2;ratioP2;P2;SDS_P1;SDS_P2;PMS_P1;PMS_P2;Temp;Humidity;BMP_temperature;BMP_pressure;BME280_temperature;BME280_humidity;BME280_pressure;Samples;Min_cycle;Max_cycle;Signal;HPM_P1;HPM_P2
2022/02/25 00:00:29;;;;;;;2.20;1.40;;;5.10;99.70;;;;;;5053206;28;20459;-64
2022/02/25 00:02:56;;;;;;;3.03;1.50;;;4.90;99.70;;;;;;5053034;28;20823;-67
2022/02/25 00:05:23;;;;;;;1.67;1.43;;;4.90;99.70;;;;;;5052827;28;20948;-64
2022/02/25 00:07:51;;;;;;;2.50;1.50;;;4.80;99.70;;;;;;5053162;28;20447;-64
2022/02/25 00:10:17;;;;;;;3.57;1.93;;;4.80;99.70;;;;;;5053053;28;20460;-67
2022/02/25 00:12:46;;;;;;;3.97;1.60;;;4.80;99.70;;;;;;5053225;28;20444;-64
2022/02/25 00:15:13;;;;;;;2.00;1.43;;;4.80;99.70;;;;;;5052858;28;20833;-67
2022/02/25 00:17:39;;;;;;;2.63;1.50;;;4.80;99.70;;;;;;5052910;28;20518;-66
2022/02/25 00:20:07;;;;;;;4.07;1.70;;;4.80;99.70;;;;;;5052581;28;20471;-64
2022/02/25 00:22:34;;;;;;;3.90;1.70;;;4.70;99.70;;;;;;5053052;28;20821;-64
2022/02/25 00:25:03;;;;;;;2.93;1.50;;;4.70;99.70;;;;;;5052658;28;20455;-65
2022/02/25 00:27:29;;;;;;;2.73;1.60;;;4.70;99.70;;;;;;5052815;28;20934;-64
2022/02/25 00:29:56;;;;;;;2.63;1.77;;;4.70;99.70;;;;;;5052541;28;20963;-66
2022/02/25 00:32:23;;;;;;;2.47;1.50;;;4.70;99.70;;;;;;5052834;28;20451;-64
2022/02/25 00:34:49;;;;;;;2.93;1.53;;;4.60;99.70;;;;;;5052587;28;20450;-66
2022/02/25 00:37:16;;;;;;;2.53;1.63;;;4.60;99.70;;;;;;5052566;28;20467;-64
2022/02/25 00:39:43;;;;;;;7.70;1.83;;;4.50;99.70;;;;;;5052304;28;20487;-64
2022/02/25 00:42:13;;;;;;;2.10;1.57;;;4.70;99.70;;;;;;5052657;28;20510;-64
2022/02/25 00:44:40;;;;;;;4.47;1.70;;;4.60;99.70;;;;;;5052542;28;20447;-64
2022/02/25 00:47:07;;;;;;;2.83;1.63;;;4.60;99.70;;;;;;5052188;28;20443;-64
2022/02/25 00:49:34;;;;;;;3.17;1.70;;;4.60;99.70;;;;;;5052331;28;20463;-66
2022/02/25 00:52:00;;;;;;;9.33;1.90;;;4.50;99.70;;;;;;5052025;28;20450;-64
2022/02/25 00:54:27;;;;;;;6.33;1.60;;;4.60;99.70;;;;;;5052378;28;20513;-64
2022/02/25 00:56:54;;;;;;;2.43;1.53;;;4.50;99.70;;;;;;5051760;28;20443;-64
2022/02/25 00:59:22;;;;;;;4.53;1.63;;;4.70;99.70;;;;;;5051957;28;20540;-65
2022/02/25 01:01:49;;;;;;;2.50;1.60;;;4.60;99.70;;;;;;5051782;28;20474;-64
2022/02/25 01:04:16;;;;;;;4.80;1.90;;;4.70;99.70;;;;;;5052122;28;20443;-64
2022/02/25 01:06:43;;;;;;;2.90;1.53;;;4.70;99.70;;;;;;5051716;28;20935;-64
2022/02/25 01:09:11;;;;;;;3.37;1.60;;;4.50;99.70;;;;;;5051875;28;20456;-66
2022/02/25 01:11:37;;;;;;;3.70;1.80;;;4.60;99.70;;;;;;5052043;28;20450;-64
2022/02/25 01:14:04;;;;;;;4.40;1.93;;;4.50;99.70;;;;;;5052089;28;20451;-65
2022/02/25 01:16:32;;;;;;;4.27;2.00;;;4.60;99.70;;;;;;5051545;28;20450;-64
2022/02/25 01:18:59;;;;;;;2.20;1.63;;;4.50;99.70;;;;;;5051667;28;20572;-64
2022/02/25 01:21:26;;;;;;;3.10;1.80;;;4.50;99.70;;;;;;5051871;28;20446;-64
2022/02/25 01:23:52;;;;;;;3.83;1.90;;;4.50;99.70;;;;;;5051882;28;20443;-64
2022/02/25 01:26:19;;;;;;;3.90;1.80;;;4.60;99.70;;;;;;5051346;28;20439;-64
2022/02/25 01:28:46;;;;;;;2.73;1.80;;;4.40;99.70;;;;;;5051526;28;20493;-64
2022/02/25 01:31:13;;;;;;;2.30;1.50;;;4.30;99.70;;;;;;5051695;28;20444;-63
2022/02/25 01:33:41;;;;;;;3.67;1.87;;;4.10;99.70;;;;;;5051794;28;20448;-66
2022/02/25 01:36:08;;;;;;;5.97;1.90;;;4.20;99.70;;;;;;5051523;28;20447;-65
2022/02/25 01:38:34;;;;;;;3.20;1.70;;;4.00;99.70;;;;;;5051392;28;20862;-66
2022/02/25 01:41:01;;;;;;;5.30;2.00;;;4.00;99.70;;;;;;5051224;28;20479;-64
2022/02/25 01:43:28;;;;;;;2.40;1.90;;;4.10;99.70;;;;;;5051112;28;20447;-64
2022/02/25 01:45:55;;;;;;;4.87;1.80;;;4.00;99.70;;;;;;5051235;28;20447;-66
2022/02/25 01:48:21;;;;;;;3.50;2.40;;;3.90;99.70;;;;;;5051252;28;20444;-64
2022/02/25 01:50:49;;;;;;;3.77;2.03;;;3.90;99.70;;;;;;5050568;28;20510;-64
2022/02/25 01:53:19;;;;;;;5.60;1.83;;;3.80;99.70;;;;;;5051332;28;20455;-66
2022/02/25 01:55:47;;;;;;;6.37;1.97;;;3.80;99.70;;;;;;5051146;28;20452;-65
2022/02/25 01:58:14;;;;;;;5.47;2.30;;;3.80;99.70;;;;;;5051091;28;20490;-66
2022/02/25 02:00:42;;;;;;;3.17;1.87;;;3.70;99.70;;;;;;5051298;28;20463;-66
2022/02/25 02:03:09;;;;;;;6.13;1.80;;;3.90;99.70;;;;;;5050671;28;20450;-66
2022/02/25 02:05:36;;;;;;;3.77;1.97;;;3.90;99.70;;;;;;5050880;28;20440;-66
2022/02/25 02:08:05;;;;;;;3.73;1.70;;;3.80;99.70;;;;;;5051079;28;20454;-66
2022/02/25 02:10:32;;;;;;;4.23;2.00;;;3.80;99.70;;;;;;5050562;28;20467;-66
2022/02/25 02:12:58;;;;;;;4.23;1.90;;;3.70;99.70;;;;;;5051065;28;21044;-66
2022/02/25 02:15:25;;;;;;;6.00;2.13;;;3.70;99.70;;;;;;5050946;28;20474;-64
2022/02/25 02:17:53;;;;;;;4.00;2.10;;;3.60;99.70;;;;;;5050882;28;20451;-66
2022/02/25 02:20:20;;;;;;;2.40;1.90;;;3.60;99.70;;;;;;5051090;28;20491;-66
2022/02/25 02:22:48;;;;;;;3.40;2.20;;;3.50;99.70;;;;;;5050920;28;20458;-66
2022/02/25 02:25:15;;;;;;;8.00;2.63;;;3.60;99.70;;;;;;5050680;28;20439;-62
2022/02/25 02:30:26;;;;;;;2.63;1.80;;;3.50;99.70;;;;;;5051071;28;20528;-66
2022/02/25 02:32:52;;;;;;;5.03;2.17;;;3.40;99.70;;;;;;5050900;28;20873;-66
2022/02/25 02:35:19;;;;;;;6.20;2.00;;;3.40;99.70;;;;;;5050735;28;20456;-66
2022/02/25 02:37:46;;;;;;;4.63;2.10;;;3.50;99.70;;;;;;5050817;28;20446;-66
2022/02/25 02:40:14;;;;;;;6.90;2.20;;;3.50;99.70;;;;;;5050637;28;20488;-65
2022/02/25 02:42:40;;;;;;;4.80;2.20;;;3.50;99.70;;;;;;5050893;28;20452;-66
2022/02/25 02:45:09;;;;;;;3.33;1.80;;;3.60;99.70;;;;;;5050627;28;20440;-66
2022/02/25 02:47:35;;;;;;;3.47;1.90;;;3.60;99.70;;;;;;5050717;28;20834;-66
2022/02/25 02:50:02;;;;;;;2.87;1.80;;;3.50;99.70;;;;;;5050399;28;20463;-65
2022/02/25 02:52:29;;;;;;;2.33;1.70;;;3.40;99.70;;;;;;5050556;28;20446;-66
2022/02/25 02:54:56;;;;;;;2.60;1.90;;;3.40;99.70;;;;;;5050645;28;21026;-66
2022/02/25 02:57:24;;;;;;;3.00;1.67;;;3.30;99.70;;;;;;5050667;28;20498;-66
2022/02/25 02:59:50;;;;;;;6.70;1.97;;;3.40;99.70;;;;;;5050611;28;20487;-66
2022/02/25 03:02:18;;;;;;;3.40;2.17;;;3.40;99.70;;;;;;5050133;28;20447;-66
2022/02/25 03:04:45;;;;;;;4.80;2.00;;;3.50;99.70;;;;;;5050835;28;20451;-66
2022/02/25 03:07:12;;;;;;;4.40;2.00;;;3.40;99.70;;;;;;5050641;28;20534;-66
2022/02/25 03:09:40;;;;;;;3.83;1.80;;;3.50;99.70;;;;;;5050393;28;20913;-66
2022/02/25 03:12:08;;;;;;;5.27;2.17;;;3.40;99.70;;;;;;5050841;28;20444;-66
2022/02/25 03:14:37;;;;;;;6.40;1.83;;;3.40;99.70;;;;;;5050404;28;20440;-66
2022/02/25 03:17:04;;;;;;;3.07;1.80;;;3.40;99.70;;;;;;5050270;28;20517;-65
2022/02/25 03:19:30;;;;;;;5.27;1.80;;;3.40;99.70;;;;;;5050227;28;20491;-66
2022/02/25 03:21:57;;;;;;;4.33;2.00;;;3.40;99.70;;;;;;5053260;28;20443;-66
2022/02/25 03:24:24;;;;;;;7.23;2.03;;;3.50;99.70;;;;;;5054094;28;20443;-66
2022/02/25 03:26:51;;;;;;;4.17;1.83;;;3.40;99.70;;;;;;5053867;28;20452;-66
2022/02/25 03:29:17;;;;;;;3.83;1.83;;;3.60;99.70;;;;;;5053764;28;20466;-67
2022/02/25 03:31:45;;;;;;;7.10;2.10;;;3.50;99.70;;;;;;5054134;28;20455;-66
2022/02/25 03:34:12;;;;;;;6.90;2.07;;;3.60;99.70;;;;;;5053894;28;20448;-66
2022/02/25 03:36:39;;;;;;;5.00;1.80;;;3.60;99.70;;;;;;5053550;28;20439;-66
2022/02/25 03:39:06;;;;;;;3.80;1.80;;;3.30;99.70;;;;;;5053331;28;20931;-66
2022/02/25 03:41:33;;;;;;;4.00;1.67;;;3.00;99.70;;;;;;5053858;28;20443;-66
2022/02/25 03:44:00;;;;;;;2.70;1.90;;;2.90;99.70;;;;;;5053813;28;20463;-66
2022/02/25 03:46:27;;;;;;;9.20;2.10;;;2.80;99.70;;;;;;5053416;28;20829;-66
2022/02/25 03:48:55;;;;;;;4.57;2.10;;;3.10;99.70;;;;;;5053401;28;20493;-66
2022/02/25 03:51:23;;;;;;;2.77;1.90;;;2.90;99.70;;;;;;5053205;28;20440;-66
2022/02/25 03:53:50;;;;;;;5.10;2.20;;;3.00;99.70;;;;;;5053476;28;21013;-66
2022/02/25 03:56:17;;;;;;;7.50;2.00;;;3.10;99.70;;;;;;5053309;28;20439;-66
2022/02/25 03:58:44;;;;;;;4.07;1.97;;;3.20;99.70;;;;;;5053345;28;20824;-66
2022/02/25 04:01:11;;;;;;;4.63;2.13;;;3.20;99.70;;;;;;5053428;28;20487;-66
2022/02/25 04:03:37;;;;;;;9.20;2.20;;;3.40;99.70;;;;;;5053453;28;20448;-66
2022/02/25 04:06:06;;;;;;;4.80;2.43;;;3.20;99.70;;;;;;5052982;28;20506;-66
2022/02/25 04:08:33;;;;;;;6.07;2.23;;;3.00;99.70;;;;;;5053162;28;20448;-66
2022/02/25 04:11:00;;;;;;;6.60;2.10;;;2.80;99.70;;;;;;5053376;28;20826;-66
2022/02/25 04:13:27;;;;;;;6.17;2.40;;;3.00;99.70;;;;;;5053283;28;20463;-66
2022/02/25 04:15:54;;;;;;;3.60;2.07;;;2.80;99.70;;;;;;5053025;28;20474;-66
2022/02/25 04:18:20;;;;;;;4.47;2.00;;;3.10;99.70;;;;;;5053026;28;20454;-66
2022/02/25 04:20:47;;;;;;;4.20;2.07;;;3.00;99.70;;;;;;5052862;28;20484;-66
2022/02/25 04:23:15;;;;;;;4.40;2.00;;;3.10;99.70;;;;;;5053120;28;20450;-66
2022/02/25 04:25:42;;;;;;;9.13;1.90;;;3.40;99.70;;;;;;5052727;28;20456;-65
2022/02/25 04:28:09;;;;;;;4.90;1.70;;;3.30;99.70;;;;;;5052800;28;20471;-66
2022/02/25 04:30:35;;;;;;;4.93;2.20;;;3.30;99.70;;;;;;5052793;28;20467;-66
2022/02/25 04:33:02;;;;;;;4.20;1.87;;;3.30;99.70;;;;;;5052109;28;20444;-66
2022/02/25 04:35:29;;;;;;;3.20;1.53;;;3.20;99.70;;;;;;5052430;28;20455;-66
2022/02/25 04:37:56;;;;;;;3.03;1.70;;;3.40;99.70;;;;;;5052619;28;20444;-66
2022/02/25 04:40:24;;;;;;;2.73;1.60;;;3.50;99.70;;;;;;5119788;22;21037;-65
2022/02/25 04:42:51;;;;;;;2.97;1.60;;;3.30;99.70;;;;;;5071606;28;20442;-66
2022/02/25 04:45:18;;;;;;;4.07;1.80;;;3.30;99.70;;;;;;5071638;28;20813;-67
2022/02/25 04:47:45;;;;;;;3.87;1.73;;;3.40;99.70;;;;;;5072118;28;20442;-66
2022/02/25 04:50:14;;;;;;;3.37;1.70;;;3.40;99.70;;;;;;5071027;28;20482;-68
2022/02/25 04:52:41;;;;;;;6.03;1.60;;;3.50;99.70;;;;;;5072101;28;20447;-67
2022/02/25 04:55:08;;;;;;;3.77;1.67;;;3.40;99.70;;;;;;5071752;28;20454;-66
2022/02/25 04:57:36;;;;;;;3.00;1.70;;;3.10;99.70;;;;;;5072020;28;20820;-66
2022/02/25 05:00:06;;;;;;;5.13;1.63;;;3.30;99.70;;;;;;5071700;28;20974;-67
2022/02/25 05:02:32;;;;;;;3.57;1.60;;;3.20;99.70;;;;;;5072088;28;20825;-66
2022/02/25 05:04:59;;;;;;;5.80;1.77;;;3.20;99.70;;;;;;5071446;28;20435;-67
2022/02/25 05:07:26;;;;;;;4.50;1.60;;;3.20;99.70;;;;;;5071842;28;20500;-66
2022/02/25 05:09:53;;;;;;;7.13;1.97;;;3.10;99.70;;;;;;5071512;28;20462;-66
2022/02/25 05:12:20;;;;;;;4.63;1.70;;;3.10;99.70;;;;;;5071863;28;20442;-66
2022/02/25 05:20:23;;;;;;;3.50;2.20;;;3.50;99.70;;;;;;5071416;28;21004;-66
2022/02/25 05:22:52;;;;;;;5.83;2.20;;;3.20;99.70;;;;;;5071595;28;20451;-67
2022/02/25 05:25:18;;;;;;;7.13;2.00;;;3.00;99.70;;;;;;5071192;28;20887;-66
2022/02/25 05:27:45;;;;;;;6.67;2.00;;;3.10;99.70;;;;;;5071347;28;20454;-66
2022/02/25 05:30:15;;;;;;;3.70;1.77;;;3.00;99.70;;;;;;5071259;28;20467;-67
2022/02/25 05:32:42;;;;;;;7.53;2.30;;;3.10;99.70;;;;;;5071446;28;20454;-66
2022/02/25 05:35:09;;;;;;;7.33;2.10;;;3.10;99.70;;;;;;5070978;28;20442;-67
2022/02/25 05:37:36;;;;;;;6.33;2.47;;;3.20;99.70;;;;;;5071314;28;20974;-66
2022/02/25 05:40:04;;;;;;;7.83;2.33;;;3.20;99.70;;;;;;5071018;28;20494;-67
2022/02/25 05:42:31;;;;;;;13.47;2.50;;;3.20;99.70;;;;;;5071232;28;20447;-67
2022/02/25 05:44:59;;;;;;;6.57;2.20;;;3.10;99.70;;;;;;5070865;28;20438;-67
2022/02/25 05:47:27;;;;;;;3.80;1.70;;;3.10;99.70;;;;;;5071215;28;20948;-66
2022/02/25 05:49:54;;;;;;;4.27;1.90;;;3.00;99.70;;;;;;5070492;28;20539;-65
2022/02/25 05:52:21;;;;;;;3.10;1.87;;;2.90;99.70;;;;;;5071280;28;20438;-66
2022/02/25 05:54:48;;;;;;;6.90;1.87;;;2.70;99.70;;;;;;5070819;28;20529;-68
2022/02/25 05:57:16;;;;;;;5.60;2.17;;;2.60;99.70;;;;;;5071090;28;20825;-67
2022/02/25 05:59:43;;;;;;;3.57;2.07;;;2.40;99.70;;;;;;5070885;28;20562;-66
2022/02/25 06:02:09;;;;;;;4.10;2.20;;;2.50;99.70;;;;;;5070911;28;20453;-67
2022/02/25 06:04:38;;;;;;;3.83;1.90;;;2.40;99.70;;;;;;5068350;28;20454;-66
2022/02/25 06:07:05;;;;;;;4.03;2.10;;;2.40;99.70;;;;;;5070278;28;20480;-67
2022/02/25 06:09:32;;;;;;;4.60;2.33;;;2.40;99.70;;;;;;5070788;28;20466;-66
2022/02/25 06:11:58;;;;;;;8.00;2.37;;;2.50;99.70;;;;;;5070770;28;20451;-66
2022/02/25 06:14:25;;;;;;;7.07;2.60;;;2.40;99.70;;;;;;5070675;28;20820;-66
2022/02/25 06:16:52;;;;;;;6.07;2.40;;;2.40;99.70;;;;;;5070554;28;20879;-66
2022/02/25 06:19:19;;;;;;;5.93;2.30;;;2.50;99.70;;;;;;5070513;28;20454;-66
2022/02/25 06:21:47;;;;;;;3.20;1.90;;;2.60;99.70;;;;;;5070706;28;20908;-68
2022/02/25 06:24:13;;;;;;;7.60;2.43;;;2.60;99.70;;;;;;5070648;28;20449;-67
2022/02/25 06:26:40;;;;;;;6.60;2.20;;;2.70;99.70;;;;;;5070303;28;20454;-66
2022/02/25 06:29:07;;;;;;;7.00;2.30;;;2.60;99.70;;;;;;5070508;28;20447;-66
2022/02/25 06:31:34;;;;;;;7.63;2.50;;;2.60;99.70;;;;;;5070489;28;20481;-67
2022/02/25 06:34:00;;;;;;;4.53;2.17;;;2.50;99.70;;;;;;5070439;28;20446;-67
2022/02/25 06:36:27;;;;;;;5.47;2.70;;;2.40;99.70;;;;;;5070106;28;20794;-67
2022/02/25 06:38:55;;;;;;;7.57;2.93;;;2.40;99.70;;;;;;5070576;28;20480;-66
2022/02/25 06:41:23;;;;;;;4.33;2.30;;;2.30;99.70;;;;;;5070179;28;20900;-66
2022/02/25 06:43:49;;;;;;;8.50;2.43;;;2.20;99.70;;;;;;5070388;28;20446;-66
2022/02/25 06:46:16;;;;;;;7.17;2.10;;;2.20;99.70;;;;;;5070109;28;20453;-66
2022/02/25 06:48:44;;;;;;;6.60;2.43;;;2.00;99.70;;;;;;5070201;28;20515;-68
2022/02/25 06:51:11;;;;;;;6.37;2.20;;;1.90;99.70;;;;;;5069460;28;20822;-66
2022/02/25 06:53:38;;;;;;;8.03;2.73;;;1.90;99.70;;;;;;5070175;28;20454;-67
2022/02/25 06:56:07;;;;;;;6.63;2.53;;;1.90;99.70;;;;;;5071629;28;20528;-66
2022/02/25 06:58:35;;;;;;;5.63;2.30;;;1.90;99.70;;;;;;5074168;28;20439;-67
2022/02/25 07:01:02;;;;;;;5.50;2.20;;;2.10;99.70;;;;;;5071934;28;20518;-65
2022/02/25 07:03:29;;;;;;;7.30;2.40;;;2.20;99.70;;;;;;5067826;28;20529;-67
2022/02/25 07:05:56;;;;;;;5.30;2.67;;;2.20;99.70;;;;;;5070545;28;20562;-67
2022/02/25 07:08:23;;;;;;;5.07;2.20;;;2.30;99.70;;;;;;5082337;28;20794;-67
2022/02/25 07:10:50;;;;;;;3.90;2.40;;;2.30;99.70;;;;;;5076780;28;20859;-66
2022/02/25 07:13:19;;;;;;;8.43;2.87;;;2.20;99.70;;;;;;5086274;28;20449;-65
2022/02/25 07:15:46;;;;;;;9.60;3.67;;;2.20;99.70;;;;;;5085317;28;20533;-66
2022/02/25 07:18:15;;;;;;;17.37;5.07;;;2.20;99.70;;;;;;5093968;28;20442;-66
2022/02/25 07:20:42;;;;;;;16.73;4.73;;;2.30;99.70;;;;;;5094131;28;20481;-66
2022/02/25 07:23:09;;;;;;;21.23;5.60;;;2.30;99.70;;;;;;5094137;28;20441;-66
2022/02/25 07:25:36;;;;;;;18.80;6.63;;;2.30;99.70;;;;;;5092881;28;20453;-68
2022/02/25 07:28:03;;;;;;;18.43;6.93;;;2.40;99.70;;;;;;5093595;28;20461;-67
2022/02/25 07:30:31;;;;;;;14.00;5.40;;;2.50;99.70;;;;;;5093756;28;20835;-68
2022/02/25 07:32:59;;;;;;;15.80;5.50;;;2.80;99.70;;;;;;5093746;28;20446;-66
2022/02/25 07:35:26;;;;;;;25.03;4.67;;;3.30;99.70;;;;;;5079217;28;20467;-66
2022/02/25 07:37:53;;;;;;;8.93;3.40;;;3.50;99.70;;;;;;5066795;28;21304;-67
2022/02/25 07:40:20;;;;;;;11.90;3.00;;;3.70;99.70;;;;;;5075947;28;20505;-67
2022/02/25 07:42:47;;;;;;;8.10;3.20;;;3.70;99.70;;;;;;5082339;28;20438;-68
2022/02/25 07:45:13;;;;;;;8.03;2.90;;;3.50;99.70;;;;;;5084825;28;20449;-67
2022/02/25 07:47:42;;;;;;;7.60;2.87;;;3.60;99.70;;;;;;5092626;28;20696;-67
2022/02/25 07:50:10;;;;;;;8.30;2.60;;;3.70;99.70;;;;;;5060870;28;20455;-67
2022/02/25 07:52:37;;;;;;;8.53;2.60;;;3.90;99.70;;;;;;5062724;28;20500;-67
2022/02/25 07:55:06;;;;;;;5.83;2.67;;;3.90;99.70;;;;;;5056648;28;21044;-67
2022/02/25 07:57:35;;;;;;;7.20;2.30;;;3.90;99.70;;;;;;5071304;28;20489;-67
2022/02/25 08:00:01;;;;;;;8.60;2.67;;;3.90;99.70;;;;;;5074076;28;21045;-68
2022/02/25 08:02:28;;;;;;;9.90;2.60;;;3.90;99.70;;;;;;5076854;28;20834;-68
2022/02/25 08:04:56;;;;;;;6.90;2.43;;;3.90;99.70;;;;;;5075468;28;20454;-68
2022/02/25 08:07:23;;;;;;;8.33;2.77;;;4.20;99.70;;;;;;5061089;28;20459;-67
2022/02/25 08:09:50;;;;;;;5.13;2.43;;;4.10;99.70;;;;;;5053525;28;20895;-68
2022/02/25 08:12:16;;;;;;;7.30;2.30;;;4.20;99.70;;;;;;5053925;28;20443;-68
2022/02/25 08:14:43;;;;;;;8.00;2.50;;;4.10;99.70;;;;;;5055301;28;20880;-67
2022/02/25 08:17:10;;;;;;;12.10;2.67;;;4.40;99.70;;;;;;5053729;28;20766;-67
2022/02/25 08:19:36;;;;;;;6.13;2.37;;;5.10;99.70;;;;;;5054874;28;20464;-68
2022/02/25 08:22:04;;;;;;;4.60;2.00;;;5.70;99.70;;;;;;5053920;28;20490;-67
2022/02/25 08:24:31;;;;;;;4.87;2.00;;;6.60;99.70;;;;;;5054823;28;20938;-68
2022/02/25 08:26:58;;;;;;;5.03;2.27;;;7.10;99.70;;;;;;5053616;28;20474;-67
2022/02/25 08:29:25;;;;;;;7.80;2.30;;;7.30;99.70;;;;;;5054503;28;21404;-67
2022/02/25 08:31:52;;;;;;;10.07;2.20;;;7.70;99.70;;;;;;5053373;28;20443;-68
2022/02/25 08:34:19;;;;;;;5.60;2.43;;;7.70;99.70;;;;;;5054368;28;20967;-67
2022/02/25 08:36:46;;;;;;;6.07;2.80;;;8.30;99.70;;;;;;5053493;28;20505;-69
2022/02/25 08:39:14;;;;;;;8.13;2.10;;;8.60;99.70;;;;;;5054436;28;20451;-67
2022/02/25 08:41:41;;;;;;;6.53;2.77;;;8.80;99.70;;;;;;5053538;28;20484;-67
2022/02/25 08:44:07;;;;;;;7.80;2.37;;;8.90;99.70;;;;;;5053679;28;20452;-69
2022/02/25 08:46:36;;;;;;;12.17;2.23;;;9.10;99.70;;;;;;5053906;28;20825;-69
2022/02/25 08:49:03;;;;;;;5.20;2.50;;;9.70;99.70;;;;;;5052956;28;20451;-69
2022/02/25 08:51:30;;;;;;;10.93;2.27;;;10.10;99.70;;;;;;5068353;28;20463;-69
2022/02/25 08:53:57;;;;;;;10.43;3.97;;;10.20;99.70;;;;;;5071081;28;20447;-67
2022/02/25 08:56:26;;;;;;;9.10;2.80;;;10.40;99.70;;;;;;5071933;28;20450;-68
2022/02/25 08:58:53;;;;;;;7.30;2.80;;;10.20;99.70;;;;;;5071860;28;20458;-68
2022/02/25 09:01:20;;;;;;;5.90;2.70;;;10.30;99.70;;;;;;5071922;28;20485;-67
2022/02/25 09:03:46;;;;;;;7.10;2.40;;;10.00;99.70;;;;;;5072073;28;20513;-67
2022/02/25 09:06:14;;;;;;;6.90;2.60;;;9.70;99.70;;;;;;5071842;28;20447;-68
2022/02/25 09:08:41;;;;;;;10.47;2.73;;;9.50;99.70;;;;;;5071382;28;20826;-67
2022/02/25 09:11:08;;;;;;;6.43;2.20;;;9.90;99.70;;;;;;5070095;28;20502;-68
2022/02/25 09:13:36;;;;;;;9.07;2.67;;;9.80;99.70;;;;;;5067406;28;20455;-69
2022/02/25 09:16:04;;;;;;;5.43;2.17;;;10.00;99.70;;;;;;5068555;28;20958;-67
2022/02/25 09:18:30;;;;;;;9.00;2.50;;;10.50;99.00;;;;;;5052702;28;20450;-69
2022/02/25 09:20:57;;;;;;;4.63;2.13;;;10.80;98.40;;;;;;5050875;28;20495;-68
2022/02/25 09:23:24;;;;;;;8.30;2.30;;;10.90;97.40;;;;;;5051419;28;20444;-67
2022/02/25 09:25:51;;;;;;;6.00;1.90;;;11.30;96.40;;;;;;5051495;28;20811;-67
2022/02/25 09:28:18;;;;;;;9.43;2.30;;;11.40;96.30;;;;;;5051357;28;20447;-67
2022/02/25 09:30:46;;;;;;;7.37;2.03;;;10.90;96.40;;;;;;5050942;28;20467;-67
2022/02/25 09:33:13;;;;;;;9.70;2.20;;;10.80;96.40;;;;;;5051535;28;20938;-67
2022/02/25 09:35:39;;;;;;;7.00;1.90;;;10.80;97.10;;;;;;5051192;28;20447;-70
2022/02/25 09:38:06;;;;;;;10.47;2.50;;;11.00;95.00;;;;;;5051417;28;20440;-69
2022/02/25 09:40:33;;;;;;;10.73;2.20;;;10.60;96.20;;;;;;5051053;28;20733;-71
2022/02/25 09:43:00;;;;;;;9.93;2.47;;;10.70;97.00;;;;;;5051316;28;20442;-68
2022/02/25 09:45:27;;;;;;;7.70;1.90;;;10.00;96.50;;;;;;5051048;28;20479;-69
2022/02/25 09:47:55;;;;;;;4.93;1.70;;;9.00;99.30;;;;;;5051176;28;20810;-68
2022/02/25 09:50:24;;;;;;;11.53;2.73;;;8.20;99.70;;;;;;5050344;28;20463;-69
2022/02/25 09:52:51;;;;;;;12.10;2.40;;;8.50;99.70;;;;;;5051209;28;20886;-69
2022/02/25 09:55:25;;;;;;;11.20;2.20;;;9.00;99.70;;;;;;5050807;28;20448;-68
2022/02/25 09:57:53;;;;;;;13.53;2.53;;;9.70;98.10;;;;;;5051486;28;20473;-70
2022/02/25 10:00:19;;;;;;;6.33;1.70;;;9.20;98.20;;;;;;5051845;28;20463;-69
2022/02/25 10:02:48;;;;;;;12.30;2.33;;;8.80;99.70;;;;;;5051083;28;20483;-69
2022/02/25 10:05:18;;;;;;;17.17;2.70;;;8.60;99.70;;;;;;5050631;28;20448;-70
2022/02/25 10:07:45;;;;;;;9.23;2.00;;;8.80;99.70;;;;;;5050671;28;20942;-70
2022/02/25 10:10:14;;;;;;;7.07;1.80;;;8.60;99.70;;;;;;5050618;28;20472;-70
2022/02/25 10:12:46;;;;;;;5.23;2.00;;;8.30;99.70;;;;;;5050880;28;20444;-69
2022/02/25 10:15:12;;;;;;;4.53;1.80;;;8.90;98.20;;;;;;5050326;28;20451;-68
2022/02/25 10:17:39;;;;;;;16.53;2.33;;;8.70;99.20;;;;;;5050427;28;20923;-70
2022/02/25 10:20:08;;;;;;;12.70;2.33;;;9.00;99.70;;;;;;5049896;28;20460;-68
2022/02/25 10:22:37;;;;;;;8.73;2.20;;;8.60;98.40;;;;;;5050200;28;20487;-69
2022/02/25 10:25:06;;;;;;;59.07;4.80;;;8.70;99.70;;;;;;5050703;28;20443;-69
2022/02/25 10:27:35;;;;;;;295.93;16.37;;;8.50;99.70;;;;;;5050716;28;20447;-69
2022/02/25 10:30:07;;;;;;;406.47;26.60;;;8.70;99.70;;;;;;5050287;28;20478;-75
2022/02/25 10:32:37;;;;;;;357.83;16.73;;;8.60;99.70;;;;;;5054822;28;20831;-72
2022/02/25 10:35:25;;;;;;;12.67;2.40;;;8.30;99.70;;;;;;5054131;28;20447;-69
2022/02/25 10:38:12;;;;;;;14.80;2.27;;;8.00;99.70;;;;;;5054713;28;20855;-68
2022/02/25 10:40:40;;;;;;;16.17;3.80;;;8.10;99.70;;;;;;5088930;22;20502;-63
2022/02/25 10:43:23;;;;;;;10.90;2.30;;;7.80;99.70;;;;;;5054108;28;20479;-64
2022/02/25 10:45:52;;;;;;;8.87;2.30;;;7.60;99.70;;;;;;5054225;28;20455;-64
2022/02/25 10:48:20;;;;;;;5.97;1.77;;;7.60;99.70;;;;;;5054804;28;20443;-65
2022/02/25 10:50:50;;;;;;;8.67;1.87;;;7.00;99.70;;;;;;5053889;28;20494;-64
2022/02/25 10:53:25;;;;;;;6.93;1.97;;;6.80;99.70;;;;;;5054838;28;20436;-64
2022/02/25 10:56:05;;;;;;;16.17;2.73;;;6.90;99.70;;;;;;5054405;28;20446;-67
2022/02/25 10:58:38;;;;;;;3.47;1.80;;;7.50;99.70;;;;;;5054761;28;20492;-67
2022/02/25 11:01:06;;;;;;;6.20;1.90;;;7.50;99.70;;;;;;5054686;28;20463;-66
2022/02/25 11:03:32;;;;;;;8.90;2.00;;;7.30;99.70;;;;;;5054470;28;20444;-68
2022/02/25 11:05:59;;;;;;;6.40;2.47;;;7.30;99.70;;;;;;5054281;28;20443;-65
2022/02/25 11:08:27;;;;;;;9.87;2.10;;;7.20;99.70;;;;;;5053922;28;20448;-67
2022/02/25 11:10:56;;;;;;;7.63;1.70;;;7.40;99.70;;;;;;5054118;28;20466;-65
2022/02/25 11:13:23;;;;;;;3.70;1.70;;;7.90;99.70;;;;;;5054296;28;20467;-65
2022/02/25 11:15:50;;;;;;;6.70;1.70;;;7.90;99.70;;;;;;5053919;28;20484;-65
2022/02/25 11:18:17;;;;;;;5.17;1.87;;;8.00;99.70;;;;;;5054091;28;20475;-65
2022/02/25 11:20:43;;;;;;;3.80;1.80;;;7.80;99.70;;;;;;5054051;28;20480;-66
2022/02/25 11:23:12;;;;;;;5.50;1.80;;;7.60;99.70;;;;;;5054182;28;20510;-66
2022/02/25 11:25:41;;;;;;;10.20;2.63;;;7.80;99.70;;;;;;5053610;28;20739;-65
2022/02/25 11:28:09;;;;;;;8.13;2.20;;;7.50;99.70;;;;;;5053962;28;20454;-65
2022/02/25 11:30:39;;;;;;;9.60;1.97;;;7.30;99.70;;;;;;5054002;28;20827;-65
2022/02/25 11:33:10;;;;;;;5.87;1.87;;;7.30;99.70;;;;;;5053901;28;20464;-65
2022/02/25 11:35:40;;;;;;;3.10;1.53;;;7.10;99.70;;;;;;5053550;28;20447;-65
2022/02/25 11:38:09;;;;;;;4.13;2.00;;;7.20;99.70;;;;;;5053997;28;20444;-65
2022/02/25 11:40:52;;;;;;;12.23;1.60;;;7.20;99.70;;;;;;5053620;28;20491;-66
2022/02/25 11:43:39;;;;;;;4.27;2.03;;;7.60;99.30;;;;;;5053321;28;20487;-65
2022/02/25 11:46:08;;;;;;;6.40;1.70;;;8.00;98.60;;;;;;5053439;28;20970;-65
2022/02/25 11:48:41;;;;;;;2.80;1.40;;;7.90;98.80;;;;;;5053628;28;20452;-65
2022/02/25 11:51:09;;;;;;;6.40;2.03;;;7.70;98.00;;;;;;5052840;28;20460;-64
2022/02/25 11:53:36;;;;;;;3.87;1.90;;;7.80;99.40;;;;;;5053026;28;20538;-66
2022/02/25 11:56:17;;;;;;;6.23;1.60;;;8.20;99.50;;;;;;5053278;28;20671;-65
2022/02/25 11:58:47;;;;;;;5.67;1.43;;;7.90;99.60;;;;;;5053485;28;20447;-66
2022/02/25 12:01:15;;;;;;;8.33;2.00;;;7.40;99.70;;;;;;5054183;28;20969;-65
2022/02/25 12:04:05;;;;;;;6.73;1.80;;;7.40;99.70;;;;;;5053212;28;20518;-65
2022/02/25 12:07:03;;;;;;;5.10;1.87;;;7.20;99.70;;;;;;5053208;28;20926;-64
2022/02/25 12:09:42;;;;;;;12.97;1.77;;;7.20;98.80;;;;;;5053228;28;20472;-64
2022/02/25 12:12:38;;;;;;;11.63;1.83;;;7.40;99.30;;;;;;5053489;28;20519;-65
2022/02/25 12:15:09;;;;;;;6.10;2.00;;;7.40;98.30;;;;;;5052975;28;20547;-65
2022/02/25 12:17:41;;;;;;;7.10;2.10;;;7.40;99.60;;;;;;5052993;28;20446;-65
2022/02/25 12:20:09;;;;;;;6.83;2.30;;;7.50;99.70;;;;;;5053117;28;20463;-65
2022/02/25 12:22:54;;;;;;;6.60;2.00;;;7.30;99.70;;;;;;5052962;28;20515;-66
2022/02/25 12:25:47;;;;;;;10.80;2.97;;;7.10;99.70;;;;;;5052590;28;20852;-65
2022/02/25 12:28:48;;;;;;;10.10;1.80;;;7.20;99.70;;;;;;5052790;28;20450;-64
2022/02/25 12:31:17;;;;;;;3.10;1.60;;;7.50;99.70;;;;;;5052787;28;20474;-66
2022/02/25 12:34:03;;;;;;;10.63;1.77;;;7.70;99.70;;;;;;5052975;28;21013;-66
2022/02/25 12:36:51;;;;;;;5.97;1.70;;;7.80;99.30;;;;;;5052548;28;20448;-66
2022/02/25 12:39:31;;;;;;;6.97;1.60;;;7.50;99.00;;;;;;5046811;28;20959;-65
2022/02/25 12:42:00;;;;;;;8.97;1.90;;;7.20;98.70;;;;;;5052447;28;20487;-67
2022/02/25 12:44:31;;;;;;;5.20;1.60;;;7.40;99.70;;;;;;5052652;28;20471;-65
2022/02/25 12:47:00;;;;;;;8.13;2.53;;;7.20;99.40;;;;;;5052263;28;20942;-66
2022/02/25 12:49:29;;;;;;;6.77;2.00;;;7.10;99.70;;;;;;5052592;28;20454;-66
2022/02/25 12:51:58;;;;;;;6.00;1.80;;;7.00;99.70;;;;;;5051693;28;20484;-67
2022/02/25 12:54:26;;;;;;;4.50;1.93;;;7.10;99.70;;;;;;5051076;28;20452;-67
2022/02/25 12:56:57;;;;;;;9.53;2.00;;;7.20;99.70;;;;;;5052046;28;20444;-66
2022/02/25 12:59:35;;;;;;;9.80;1.90;;;7.10;99.70;;;;;;5051806;28;20450;-64
2022/02/25 13:02:03;;;;;;;5.80;1.60;;;7.20;99.70;;;;;;5052181;28;20908;-64
2022/02/25 13:04:32;;;;;;;5.70;1.70;;;7.40;99.70;;;;;;5050799;28;20833;-65
2022/02/25 13:07:01;;;;;;;5.53;2.37;;;7.30;99.70;;;;;;5051758;28;20447;-66
2022/02/25 13:09:30;;;;;;;4.57;1.93;;;7.50;99.70;;;;;;5051656;28;20562;-64